Wolverine Lake, Michigan
Current Conditions -  °F | °C
As of 10:53 PM on Saturday 22 Nov 2014 (Local Time) from KPTK Reporting Station
Light Fog Light Fog  
Wind Chill: 43°   Ceiling: 2300
Heat Index: 47°   Visibility: 8mi
Dew Point: 42°   Wind: 9mph
Humidity: 83%   Direction: 220°SW
Pressure: 29.91"   Gusts: NA
Location:  42.5503°N, 83.474°W
Report Text: KPTK 230353Z 22008KT 8SM MIFG BKN023 OVC060 08/06 A2991 RMK AO2 SLP136 T00830056
Loading
Personal Weather Stations






























Interactive Weather Map New forecast layout! Learn more

10-Day Weather Forecast

Advertisements
Track Severe Weather on mobile